Time;durP1;ratioP1;P1;durP2;ratioP2;P2;SDS_P1;SDS_P2;PMS_P1;PMS_P2;Temp;Humidity;BMP_temperature;BMP_pressure;BME280_temperature;BME280_humidity;BME280_pressure;Samples;Min_cycle;Max_cycle;Signal;HPM_P1;HPM_P2
2021/01/31 00:01:18;;;;;;;74.22;34.35;;;;;;;20.84;43.32;156608.97;1678146;83;21249;-68
2021/01/31 00:03:51;;;;;;;68.37;32.45;;;;;;;20.71;44.56;156574.58;1682073;83;21844;-68
2021/01/31 00:06:24;;;;;;;66.25;29.48;;;;;;;21.51;46.57;156788.95;1679689;83;21364;-68
2021/01/31 00:08:56;;;;;;;65.28;27.55;;;;;;;21.20;46.59;156706.88;1690780;83;21434;-67
2021/01/31 00:11:28;;;;;;;68.47;28.35;;;;;;;20.98;47.95;156648.67;1710526;83;21214;-67
2021/01/31 00:14:01;;;;;;;58.85;26.42;;;;;;;21.20;42.18;156705.58;1679793;83;21306;-67
2021/01/31 00:16:33;;;;;;;50.85;24.37;;;;;;;20.98;42.39;156648.67;1705144;83;21297;-67
2021/01/31 00:19:05;;;;;;;60.45;27.30;;;;;;;20.95;42.11;156640.72;1678541;83;21328;-67
2021/01/31 00:21:37;;;;;;;62.73;26.85;;;;;;;20.67;42.88;156565.28;1697425;83;21274;-68
2021/01/31 00:24:09;;;;;;;64.00;28.87;;;;;;;20.93;42.43;156634.12;1680646;85;21392;-68
2021/01/31 00:26:41;;;;;;;64.37;27.85;;;;;;;25.14;49.69;157756.73;1683151;83;21349;-67
2021/01/31 00:29:14;;;;;;;72.20;31.30;;;;;;;27.03;85.21;150056.70;1690909;83;21895;-68
2021/01/31 00:31:48;;;;;;;72.78;33.58;;;;;;;26.59;36.50;158143.28;1715788;83;21193;-67
2021/01/31 00:34:20;;;;;;;67.12;30.97;;;;;;;25.36;37.47;157813.81;1685972;83;21202;-67
2021/01/31 00:36:53;;;;;;;73.20;31.37;;;;;;;24.49;38.00;157581.53;1675447;85;21241;-68
2021/01/31 00:39:26;;;;;;;71.12;30.82;;;;;;;23.94;38.71;157436.91;1702102;83;21245;-68
2021/01/31 00:41:58;;;;;;;59.05;26.87;;;;;;;23.77;37.96;157390.50;1718348;83;21241;-68
2021/01/31 00:44:31;;;;;;;54.58;24.60;;;;;;;22.78;45.38;157125.36;1673366;83;21705;-68
2021/01/31 00:47:03;;;;;;;43.58;20.90;;;;;;;30.72;100.00;159248.28;1694988;83;21203;-67
2021/01/31 00:49:35;;;;;;;46.63;22.73;;;;;;;30.27;33.63;159128.25;1680383;83;21384;-68
2021/01/31 00:52:08;;;;;;;47.35;23.85;;;;;;;29.74;32.86;158985.70;1721462;82;21252;-68
2021/01/31 00:54:41;;;;;;;48.98;22.52;;;;;;;28.90;39.63;158761.94;1686837;83;21367;-67
2021/01/31 00:57:13;;;;;;;48.00;23.42;;;;;;;28.04;32.31;158531.63;1722771;83;21511;-68
2021/01/31 00:59:46;;;;;;;44.25;23.32;;;;;;;27.24;33.08;158317.45;1732175;83;21253;-68
2021/01/31 01:02:21;;;;;;;45.50;22.35;;;;;;;27.24;33.65;158317.45;1715198;83;21367;-68
2021/01/31 01:04:53;;;;;;;41.77;20.75;;;;;;;27.03;33.61;158260.28;1694919;84;21712;-65
2021/01/31 01:07:26;;;;;;;43.38;19.77;;;;;;;26.65;33.42;158160.56;1694674;84;21971;-68
2021/01/31 01:09:58;;;;;;;38.05;19.27;;;;;;;26.43;33.89;158100.80;1725405;83;21197;-68
2021/01/31 01:12:30;;;;;;;41.58;20.85;;;;;;;26.21;33.52;158040.94;1712316;83;21232;-68
2021/01/31 01:15:05;;;;;;;42.05;20.92;;;;;;;26.68;33.91;158168.55;1732044;83;21352;-68
2021/01/31 01:17:38;;;;;;;40.17;17.95;;;;;;;25.83;32.86;157939.98;1732213;83;21845;-68
2021/01/31 01:20:11;;;;;;;41.95;21.80;;;;;;;25.00;33.04;157719.50;1730389;83;21423;-69
2021/01/31 01:22:46;;;;;;;45.00;23.38;;;;;;;25.30;32.96;157797.86;1693274;84;21341;-68
2021/01/31 01:25:19;;;;;;;46.37;21.42;;;;;;;25.61;34.29;157881.52;1695481;83;21182;-67
2021/01/31 01:27:52;;;;;;;37.33;19.70;;;;;;;24.90;34.25;157692.97;1692160;83;21344;-68
2021/01/31 01:30:29;;;;;;;36.95;18.62;;;;;;;24.48;33.37;157578.87;1715390;83;21237;-68
2021/01/31 01:33:02;;;;;;;39.20;18.98;;;;;;;24.45;33.88;157570.91;1709686;83;21347;-67
2021/01/31 01:35:34;;;;;;;42.83;19.48;;;;;;;24.66;33.18;157629.28;1720601;83;21178;-68
2021/01/31 01:38:07;;;;;;;40.00;18.48;;;;;;;25.10;33.52;157746.09;1731981;83;21410;-68
2021/01/31 01:40:40;;;;;;;33.67;15.88;;;;;;;25.00;34.22;157718.20;1722822;83;21197;-68
2021/01/31 01:43:18;;;;;;;32.55;16.32;;;;;;;27.01;36.55;158256.25;1695521;83;21375;-68
2021/01/31 01:46:10;;;;;;;31.52;15.32;;;;;;;27.49;33.47;158383.94;1695455;84;21251;-68
2021/01/31 01:48:43;;;;;;;28.45;15.40;;;;;;;26.58;32.62;158141.98;1621900;84;21196;-67
2021/01/31 01:51:18;;;;;;;32.03;14.95;;;;;;;27.46;32.46;158375.95;1675798;83;21179;-68
2021/01/31 01:53:50;;;;;;;28.75;14.28;;;;;;;26.82;33.07;158205.77;1682312;83;21472;-68
2021/01/31 01:56:39;;;;;;;29.48;14.15;;;;;;;27.56;32.69;158402.53;1681037;83;21194;-67
2021/01/31 01:59:11;;;;;;;26.57;13.65;;;;;;;27.22;32.45;158312.12;1680010;83;21726;-68
2021/01/31 02:01:58;;;;;;;24.65;14.18;;;;;;;25.71;31.85;157908.06;1676011;83;21258;-68
2021/01/31 02:04:31;;;;;;;27.65;14.35;;;;;;;25.27;44.62;157791.25;1708989;83;21206;-67
2021/01/31 02:07:05;;;;;;;21.27;12.03;;;;;;;25.42;33.74;157829.73;1686717;85;21711;-68
2021/01/31 02:09:38;;;;;;;26.73;12.90;;;;;;;24.94;33.73;157702.30;1686867;85;21267;-67
2021/01/31 02:12:10;;;;;;;20.45;11.28;;;;;;;24.61;33.38;157613.38;1694922;83;21403;-68
2021/01/31 02:14:45;;;;;;;16.17;9.93;;;;;;;24.20;33.86;157504.53;1716405;83;21337;-68
2021/01/31 02:18:03;;;;;;;19.32;10.45;;;;;;;23.60;33.58;157344.06;1698021;83;21748;-68
2021/01/31 02:20:58;;;;;;;19.90;11.00;;;;;;;23.91;34.57;157427.64;1686976;83;21344;-67
2021/01/31 02:23:55;;;;;;;19.82;10.63;;;;;;;24.30;34.75;157532.41;1631998;88;21309;-67
2021/01/31 02:26:49;;;;;;;17.45;9.38;;;;;;;28.21;32.62;158575.53;1631842;88;21776;-67
2021/01/31 02:30:02;;;;;;;17.25;9.13;;;;;;;26.68;31.01;158167.19;1667106;83;21229;-67
2021/01/31 02:33:04;;;;;;;16.87;9.15;;;;;;;26.47;31.41;158110.09;1712743;83;21355;-68
2021/01/31 02:35:37;;;;;;;14.15;7.75;;;;;;;26.09;31.93;158009.06;1718538;83;21331;-68
2021/01/31 02:38:32;;;;;;;16.73;8.50;;;;;;;25.98;31.05;157981.16;1701621;84;21197;-68
2021/01/31 02:41:12;;;;;;;15.38;8.95;;;;;;;25.46;31.77;157841.72;1719733;83;21198;-67
2021/01/31 02:43:49;;;;;;;16.17;8.28;;;;;;;25.50;33.40;157851.00;1696167;84;21330;-68
2021/01/31 02:46:34;;;;;;;15.13;8.45;;;;;;;24.98;32.45;157714.23;1691791;83;21190;-68
2021/01/31 02:49:18;;;;;;;15.23;8.60;;;;;;;25.28;33.22;157793.91;1684806;84;21335;-67
2021/01/31 02:52:22;;;;;;;13.70;7.30;;;;;;;25.18;33.57;157766.00;1694827;84;21237;-68
2021/01/31 02:55:04;;;;;;;12.25;8.18;;;;;;;25.04;32.83;157728.84;1695104;84;21724;-67
2021/01/31 02:57:41;;;;;;;14.40;7.37;;;;;;;24.86;33.52;157681.03;1661240;85;21337;-67
2021/01/31 03:00:20;;;;;;;11.25;6.40;;;;;;;24.50;33.91;157585.50;1682339;84;21720;-67
2021/01/31 03:03:08;;;;;;;11.83;6.40;;;;;;;24.55;33.00;157598.78;1694136;83;21712;-68
2021/01/31 03:05:44;;;;;;;10.63;5.85;;;;;;;24.39;35.94;157556.27;1716104;83;21308;-68
2021/01/31 03:08:22;;;;;;;13.00;6.30;;;;;;;24.06;33.47;157468.73;1705729;83;21214;-67
2021/01/31 03:11:25;;;;;;;16.17;7.05;;;;;;;24.70;35.60;157639.91;1701906;83;21210;-66
2021/01/31 03:14:04;;;;;;;15.60;6.15;;;;;;;24.93;33.33;157699.64;1696967;83;21347;-67
2021/01/31 03:16:41;;;;;;;12.33;7.85;;;;;;;24.07;33.02;157470.09;1717590;83;21190;-68
2021/01/31 03:19:24;;;;;;;12.00;7.00;;;;;;;24.69;33.05;157635.94;1679665;84;21229;-67
2021/01/31 03:21:59;;;;;;;14.33;7.20;;;;;;;24.82;33.05;157670.45;1669980;84;21242;-67
2021/01/31 03:24:44;;;;;;;9.00;5.22;;;;;;;24.36;32.49;157548.30;1695517;84;21332;-67
2021/01/31 03:27:36;;;;;;;11.90;6.05;;;;;;;24.30;32.94;157531.09;1665427;86;21309;-67
2021/01/31 03:30:11;;;;;;;11.45;6.33;;;;;;;24.18;33.79;157499.27;1703246;84;21415;-67
2021/01/31 03:32:56;;;;;;;12.65;5.45;;;;;;;24.15;33.29;157491.30;1707315;84;21254;-67
2021/01/31 03:35:36;;;;;;;10.28;5.85;;;;;;;24.18;33.29;157500.56;1709040;84;21317;-69
2021/01/31 03:38:26;;;;;;;8.30;5.65;;;;;;;23.19;33.94;157235.39;1708228;84;21206;-68
2021/01/31 03:41:08;;;;;;;8.65;6.17;;;;;;;22.90;33.87;157159.81;1684320;85;21209;-66
2021/01/31 03:43:40;;;;;;;9.78;5.53;;;;;;;22.10;34.77;156945.20;1673624;84;21764;-66
2021/01/31 03:46:35;;;;;;;10.70;5.60;;;;;;;22.46;34.32;157041.91;1694757;84;21202;-65
2021/01/31 03:49:31;;;;;;;12.55;5.33;;;;;;;22.34;36.08;157010.13;1684027;84;21311;-66
2021/01/31 03:52:03;;;;;;;9.33;5.33;;;;;;;21.94;34.94;156902.81;1675333;84;21791;-66
2021/01/31 03:54:35;;;;;;;8.15;5.33;;;;;;;21.71;34.46;156841.94;1678005;85;21377;-66
2021/01/31 03:57:27;;;;;;;9.93;5.17;;;;;;;21.98;35.11;156913.42;1695235;83;21219;-66
2021/01/31 04:00:14;;;;;;;9.38;5.62;;;;;;;21.32;35.07;156737.33;1698569;83;21351;-67
2021/01/31 04:02:59;;;;;;;7.42;5.37;;;;;;;21.73;34.82;156845.88;1700468;83;21261;-67
2021/01/31 04:05:32;;;;;;;10.65;5.78;;;;;;;21.33;34.71;156741.28;1711455;83;21253;-67
2021/01/31 04:08:07;;;;;;;9.10;4.80;;;;;;;21.89;35.52;156889.56;1706686;83;21806;-66
2021/01/31 04:10:44;;;;;;;8.83;5.33;;;;;;;21.24;35.24;156717.48;1700063;84;21190;-67
2021/01/31 04:13:17;;;;;;;7.97;4.80;;;;;;;21.44;34.29;156769.09;1669234;86;21189;-67
2021/01/31 04:15:57;;;;;;;9.73;5.90;;;;;;;21.34;34.79;156743.94;1701351;83;21297;-66
2021/01/31 04:18:29;;;;;;;8.85;5.30;;;;;;;21.31;34.49;156735.98;1726649;83;21344;-66
2021/01/31 04:21:01;;;;;;;9.98;4.78;;;;;;;21.28;35.42;156728.08;1698385;83;21219;-66
2021/01/31 04:23:33;;;;;;;8.63;5.35;;;;;;;20.41;34.60;156495.22;1699791;83;21907;-67
2021/01/31 04:26:05;;;;;;;11.88;7.40;;;;;;;21.10;35.22;156679.13;1696014;83;21376;-67
2021/01/31 04:28:38;;;;;;;10.78;6.30;;;;;;;20.88;35.97;156620.92;1700166;83;21210;-67
2021/01/31 04:31:10;;;;;;;10.60;6.05;;;;;;;21.37;34.98;156750.53;1699979;83;21254;-67
2021/01/31 04:33:42;;;;;;;10.53;6.35;;;;;;;21.28;35.50;156726.72;1727100;83;21281;-67
2021/01/31 04:36:15;;;;;;;10.35;5.53;;;;;;;20.87;34.53;156618.28;1727640;83;21455;-67
2021/01/31 04:38:48;;;;;;;10.20;5.37;;;;;;;21.22;34.79;156712.17;1710204;83;21257;-67
2021/01/31 04:41:20;;;;;;;10.15;6.33;;;;;;;21.33;34.78;156739.98;1690465;83;21444;-65
2021/01/31 04:43:53;;;;;;;10.05;5.30;;;;;;;20.74;34.52;156582.48;1711560;83;21169;-66
2021/01/31 04:46:25;;;;;;;7.85;5.00;;;;;;;21.61;33.70;156815.47;1708327;83;21186;-66
2021/01/31 04:49:08;;;;;;;12.58;5.55;;;;;;;21.81;34.67;156868.39;1691393;84;21266;-66
2021/01/31 04:52:09;;;;;;;11.73;5.40;;;;;;;22.08;33.35;156939.91;1699692;83;21169;-65
2021/01/31 04:55:09;;;;;;;9.53;6.05;;;;;;;22.53;34.28;157059.13;1682955;83;21249;-66
2021/01/31 04:57:44;;;;;;;9.63;5.08;;;;;;;22.35;34.38;157012.77;1676449;83;21238;-67
2021/01/31 05:00:24;;;;;;;10.68;5.67;;;;;;;22.18;34.11;156966.38;1710720;83;21379;-66
2021/01/31 05:02:59;;;;;;;8.25;4.90;;;;;;;22.60;33.43;157077.66;1705638;83;21221;-67
2021/01/31 05:05:36;;;;;;;9.35;5.30;;;;;;;22.54;33.84;157063.08;1696174;83;22007;-66
2021/01/31 05:08:15;;;;;;;8.50;5.22;;;;;;;21.74;33.31;156849.87;1718605;83;21236;-67
2021/01/31 05:10:49;;;;;;;8.13;4.62;;;;;;;22.39;33.88;157022.03;1726735;83;22403;-66
2021/01/31 05:13:35;;;;;;;8.50;4.58;;;;;;;22.23;33.17;156979.58;1677594;84;21746;-66
2021/01/31 05:16:10;;;;;;;9.85;5.12;;;;;;;22.42;33.58;157031.28;1693588;83;21226;-66
2021/01/31 05:18:51;;;;;;;9.95;4.83;;;;;;;22.30;34.30;156998.16;1691768;85;21455;-67
2021/01/31 05:21:28;;;;;;;9.48;5.33;;;;;;;21.30;33.41;156733.33;1691460;83;21383;-67
2021/01/31 05:24:14;;;;;;;11.22;5.83;;;;;;;21.02;33.61;156659.27;1671256;85;21337;-66
2021/01/31 05:26:59;;;;;;;9.60;5.83;;;;;;;20.80;34.91;156599.73;1680101;83;21233;-66
2021/01/31 05:29:39;;;;;;;11.80;6.47;;;;;;;21.35;36.01;156746.59;1727206;83;21218;-67
2021/01/31 05:32:15;;;;;;;9.60;5.62;;;;;;;21.21;35.12;156709.53;1727044;83;21325;-65
2021/01/31 05:34:54;;;;;;;12.45;5.97;;;;;;;21.19;35.41;156704.22;1712714;83;21332;-66
2021/01/31 05:37:31;;;;;;;11.12;6.37;;;;;;;21.10;34.93;156679.13;1695137;83;21241;-65
2021/01/31 05:40:07;;;;;;;12.78;7.00;;;;;;;20.99;34.44;156650.03;1670967;84;21189;-65
2021/01/31 05:42:45;;;;;;;16.82;8.20;;;;;;;21.17;35.71;156698.97;1690756;84;21709;-65
2021/01/31 05:45:31;;;;;;;9.95;5.92;;;;;;;21.40;35.06;156759.84;1687680;84;21198;-67
2021/01/31 05:48:19;;;;;;;15.35;8.20;;;;;;;21.00;34.65;156653.97;1683801;85;21260;-66
2021/01/31 05:50:53;;;;;;;12.73;7.47;;;;;;;21.42;36.28;156763.78;1681953;84;21764;-66
2021/01/31 05:53:34;;;;;;;12.50;6.58;;;;;;;21.41;35.24;156761.14;1697111;83;21841;-66
2021/01/31 05:56:28;;;;;;;14.47;6.97;;;;;;;20.90;34.88;156624.88;1706075;83;21237;-66
2021/01/31 05:59:08;;;;;;;11.48;6.83;;;;;;;20.72;35.25;156577.19;1694199;83;21379;-67
2021/01/31 06:01:59;;;;;;;14.58;7.87;;;;;;;21.10;35.68;156680.42;1701020;83;21907;-67
2021/01/31 06:04:31;;;;;;;13.70;6.50;;;;;;;21.12;35.45;156684.42;1683822;85;21372;-66
2021/01/31 06:07:13;;;;;;;12.60;7.05;;;;;;;20.73;34.94;156581.19;1683847;85;21361;-68
2021/01/31 06:09:50;;;;;;;16.40;6.55;;;;;;;20.97;35.86;156644.72;1683844;85;21380;-68
2021/01/31 06:12:26;;;;;;;13.43;6.47;;;;;;;20.76;35.23;156589.13;1688433;85;22389;-64
2021/01/31 06:15:08;;;;;;;14.03;7.30;;;;;;;20.30;34.87;156467.48;1703843;83;21169;-69
2021/01/31 06:17:40;;;;;;;15.50;8.78;;;;;;;21.21;35.59;156709.53;1724910;83;21782;-68
2021/01/31 06:20:20;;;;;;;13.58;7.70;;;;;;;21.13;34.58;156688.38;1693750;85;21243;-67
2021/01/31 06:22:52;;;;;;;13.83;8.18;;;;;;;21.22;34.60;156712.17;1696161;83;21197;-67
2021/01/31 06:25:32;;;;;;;15.60;7.72;;;;;;;21.17;35.21;156697.63;1725263;83;21177;-66
2021/01/31 06:28:18;;;;;;;12.83;7.33;;;;;;;21.24;34.65;156717.48;1697741;83;21336;-68
2021/01/31 06:31:21;;;;;;;12.60;6.50;;;;;;;21.38;35.46;156753.19;1669951;85;21336;-67
2021/01/31 06:33:53;;;;;;;11.70;7.00;;;;;;;20.57;34.24;156537.55;1617908;88;21287;-68
2021/01/31 06:36:42;;;;;;;15.63;7.47;;;;;;;21.34;35.29;156742.64;1624956;88;21445;-67
2021/01/31 06:39:25;;;;;;;13.38;6.85;;;;;;;21.19;34.80;156704.22;1695897;83;21217;-66
2021/01/31 06:42:29;;;;;;;14.35;7.37;;;;;;;20.78;34.34;156594.44;1703962;83;21199;-67
2021/01/31 06:45:21;;;;;;;13.35;6.75;;;;;;;20.64;34.35;156556.03;1693126;84;22609;-66
2021/01/31 06:48:43;;;;;;;15.58;7.00;;;;;;;21.46;34.59;156775.69;1723806;83;21237;-70
2021/01/31 06:51:54;;;;;;;16.02;8.90;;;;;;;21.09;34.08;156677.78;1668501;86;21226;-66
2021/01/31 06:54:31;;;;;;;16.95;7.78;;;;;;;21.23;35.01;156714.83;1668322;86;21305;-66
2021/01/31 06:57:27;;;;;;;15.03;7.55;;;;;;;21.08;34.28;156675.12;1674149;83;21234;-66
2021/01/31 07:00:16;;;;;;;20.30;8.43;;;;;;;20.93;34.46;156635.47;1635398;86;21328;-66
2021/01/31 07:03:11;;;;;;;15.98;8.08;;;;;;;20.72;34.81;156577.19;1661883;86;21253;-66
2021/01/31 07:06:13;;;;;;;13.98;7.53;;;;;;;20.34;35.45;156478.02;1662133;86;21423;-65
2021/01/31 07:09:16;;;;;;;17.70;7.53;;;;;;;20.70;35.60;156571.94;1612345;86;21729;-66
2021/01/31 07:12:19;;;;;;;15.63;7.78;;;;;;;20.86;35.62;156614.28;1656631;85;22089;-67
2021/01/31 07:15:13;;;;;;;15.18;7.40;;;;;;;20.43;35.10;156501.81;1635731;87;21901;-67
2021/01/31 07:17:56;;;;;;;15.75;8.53;;;;;;;20.45;35.09;156507.11;1633712;88;21837;-66
2021/01/31 07:20:32;;;;;;;16.25;8.00;;;;;;;20.47;34.94;156512.41;1628837;87;21233;-68
2021/01/31 07:23:15;;;;;;;18.30;7.75;;;;;;;20.86;34.89;156615.63;1645144;87;21299;-67
2021/01/31 07:25:52;;;;;;;16.32;8.03;;;;;;;20.64;34.90;156556.03;1651763;85;21330;-67
2021/01/31 07:28:33;;;;;;;16.75;7.12;;;;;;;20.83;35.04;156606.38;1648839;86;21264;-65
2021/01/31 07:31:16;;;;;;;20.48;9.35;;;;;;;20.24;34.48;156451.59;1658484;86;21248;-66
2021/01/31 07:34:03;;;;;;;18.07;8.43;;;;;;;21.12;35.09;156684.42;1672187;85;21301;-69
2021/01/31 07:36:43;;;;;;;20.08;8.80;;;;;;;21.62;35.18;156818.11;1678891;85;21193;-66
2021/01/31 07:39:20;;;;;;;16.95;8.20;;;;;;;21.46;34.97;156774.39;1645938;85;21368;-66
2021/01/31 07:41:57;;;;;;;22.25;9.05;;;;;;;21.09;34.51;156676.47;1649190;86;21365;-67
2021/01/31 07:44:34;;;;;;;23.05;9.08;;;;;;;21.42;34.56;156765.09;1620079;88;21799;-67
2021/01/31 07:47:06;;;;;;;18.17;7.95;;;;;;;21.03;34.16;156660.58;1713108;83;21237;-66
2021/01/31 07:50:02;;;;;;;15.85;7.87;;;;;;;20.82;35.32;156603.73;1705263;83;21344;-71
2021/01/31 07:52:55;;;;;;;17.65;7.20;;;;;;;21.26;36.26;156722.78;1704341;83;21760;-69
2021/01/31 07:55:42;;;;;;;24.35;9.20;;;;;;;20.79;35.61;156595.78;1710597;83;21343;-68
2021/01/31 07:58:31;;;;;;;17.32;8.18;;;;;;;21.03;34.96;156661.92;1713356;83;21217;-68
2021/01/31 08:01:03;;;;;;;15.40;7.28;;;;;;;21.49;34.82;156783.66;1698702;83;21285;-70
2021/01/31 08:03:38;;;;;;;18.50;8.15;;;;;;;20.68;34.04;156567.94;1696402;83;21332;-75
2021/01/31 08:06:41;;;;;;;20.82;10.25;;;;;;;21.11;34.37;156683.08;1679353;84;21367;-69
2021/01/31 08:09:30;;;;;;;17.52;8.53;;;;;;;21.37;35.35;156751.89;1688065;83;21249;-72
2021/01/31 08:12:14;;;;;;;15.10;8.25;;;;;;;21.51;34.42;156788.95;1697250;83;21188;-75
2021/01/31 08:15:15;;;;;;;19.70;8.53;;;;;;;21.66;34.18;156828.67;1741707;81;21402;-72
2021/01/31 08:18:01;;;;;;;20.32;8.70;;;;;;;21.48;35.12;156781.00;1725266;81;21185;-73
2021/01/31 08:20:44;;;;;;;16.65;8.50;;;;;;;21.35;34.03;156745.28;1747656;81;21354;-68
2021/01/31 08:23:28;;;;;;;;;;;;;;;21.25;33.78;156718.78;1737129;81;21288;-74
2021/01/31 08:26:03;;;;;;;13.38;6.22;;;;;;;21.97;34.22;156910.78;1732765;81;20303;-71
2021/01/31 08:28:38;;;;;;;17.15;7.42;;;;;;;22.05;32.36;156933.25;1734720;81;21218;-70
2021/01/31 08:31:16;;;;;;;15.93;6.62;;;;;;;22.66;33.15;157094.88;1737333;81;21221;-68
2021/01/31 08:34:03;;;;;;;15.93;6.30;;;;;;;21.78;34.16;156860.44;1723632;82;21268;-70
2021/01/31 08:36:37;;;;;;;17.70;7.70;;;;;;;21.80;32.52;156864.44;1708693;81;21320;-67
2021/01/31 08:39:16;;;;;;;10.80;5.70;;;;;;;22.23;33.95;156979.58;1711501;81;21319;-77
2021/01/31 08:41:48;;;;;;;13.35;6.22;;;;;;;22.23;32.77;156979.58;1710821;81;21490;-70
2021/01/31 08:44:29;;;;;;;13.05;6.65;;;;;;;22.10;34.06;156946.50;1708813;81;21189;-71
2021/01/31 08:47:03;;;;;;;11.70;5.50;;;;;;;22.19;33.10;156970.33;1718337;82;21328;-74
2021/01/31 08:49:36;;;;;;;14.35;5.80;;;;;;;22.06;32.91;156934.59;1708961;81;21339;-75
2021/01/31 08:52:14;;;;;;;11.50;5.55;;;;;;;21.75;33.05;156852.53;1711835;81;21397;-72
2021/01/31 08:55:07;;;;;;;11.60;5.83;;;;;;;21.37;33.31;156751.89;1713285;82;21259;-71
2021/01/31 08:57:40;;;;;;;8.65;4.33;;;;;;;21.95;33.81;156906.77;1709997;81;21244;-71
2021/01/31 09:00:16;;;;;;;11.43;5.45;;;;;;;21.90;32.72;156892.22;1712911;81;21302;-71
2021/01/31 09:02:48;;;;;;;11.18;5.65;;;;;;;22.18;33.22;156966.38;1721686;81;21242;-76
2021/01/31 09:05:22;;;;;;;14.18;5.50;;;;;;;22.11;32.39;156947.81;1719347;81;21223;-69
2021/01/31 09:08:03;;;;;;;9.05;5.42;;;;;;;22.18;33.31;156967.67;1720397;81;22314;-72
2021/01/31 09:10:44;;;;;;;9.08;4.65;;;;;;;22.22;32.41;156976.98;1721953;81;21249;-70
2021/01/31 09:13:30;;;;;;;9.05;4.37;;;;;;;21.64;32.42;156822.06;1721601;81;21314;-71
2021/01/31 09:16:26;;;;;;;9.43;5.12;;;;;;;21.03;33.19;156661.92;1698912;81;21383;-74
2021/01/31 09:19:23;;;;;;;9.25;4.62;;;;;;;21.54;33.12;156796.84;1717375;82;21207;-73
2021/01/31 09:21:59;;;;;;;8.15;4.80;;;;;;;22.61;33.44;157081.66;1715246;81;21199;-70
2021/01/31 09:24:38;;;;;;;9.70;5.12;;;;;;;22.75;32.37;157118.70;1711496;81;21234;-72
2021/01/31 09:27:19;;;;;;;11.05;6.03;;;;;;;23.51;31.14;157320.20;1719122;81;21218;-70
2021/01/31 09:32:58;;;;;;;11.83;4.97;;;;;;;25.36;32.40;157815.13;1719053;81;21411;-69
2021/01/31 09:35:34;;;;;;;11.05;5.83;;;;;;;25.63;29.91;157886.83;1717340;81;21735;-72
2021/01/31 09:38:27;;;;;;;10.23;4.95;;;;;;;26.55;31.18;158132.69;1717022;81;21723;-72
2021/01/31 09:41:00;;;;;;;10.38;5.05;;;;;;;26.46;31.20;158107.44;1714980;82;21269;-71
2021/01/31 09:43:33;;;;;;;7.03;4.37;;;;;;;26.99;29.58;158250.94;1715969;82;21261;-68
2021/01/31 09:46:09;;;;;;;9.85;5.28;;;;;;;27.20;28.43;158306.81;1714347;82;21297;-71
2021/01/31 09:48:42;;;;;;;9.50;4.65;;;;;;;27.28;31.41;158328.11;1714266;81;21747;-66
2021/01/31 09:51:26;;;;;;;9.50;4.60;;;;;;;27.64;29.89;158423.91;1714769;81;21188;-67
2021/01/31 09:54:17;;;;;;;7.40;3.80;;;;;;;26.75;28.56;158185.83;1715894;81;21248;-70
2021/01/31 09:57:00;;;;;;;6.50;4.03;;;;;;;27.24;32.59;158316.16;1716086;82;21827;-69
2021/01/31 09:59:40;;;;;;;8.38;4.47;;;;;;;27.30;29.16;158332.08;1716248;81;21272;-73
2021/01/31 10:02:23;;;;;;;8.23;4.37;;;;;;;26.54;29.53;158130.03;1715537;81;21376;-76
2021/01/31 10:05:00;;;;;;;7.90;4.33;;;;;;;26.30;29.81;158066.20;1717423;81;21248;-75
2021/01/31 10:07:38;;;;;;;6.03;4.15;;;;;;;27.00;34.90;158252.28;1671267;84;21748;-75
2021/01/31 10:10:35;;;;;;;7.53;4.50;;;;;;;26.82;32.03;158205.77;1646473;85;21643;-73
2021/01/31 10:13:29;;;;;;;13.05;5.50;;;;;;;26.63;31.52;158153.94;1678273;84;21442;-74
2021/01/31 10:16:06;;;;;;;7.70;3.72;;;;;;;27.32;30.28;158338.70;1678772;83;21383;-73
2021/01/31 10:18:40;;;;;;;9.00;4.20;;;;;;;27.30;31.75;158333.44;1689753;82;21193;-76
2021/01/31 10:21:25;;;;;;;7.33;3.65;;;;;;;27.11;29.77;158282.89;1666965;83;21186;-74
2021/01/31 10:24:26;;;;;;;8.45;3.42;;;;;;;26.10;29.91;158011.72;1656374;85;21244;-75
2021/01/31 10:27:13;;;;;;;7.35;3.50;;;;;;;26.38;30.17;158086.13;1678367;83;21248;-77
2021/01/31 10:29:47;;;;;;;8.63;3.22;;;;;;;25.98;31.13;157979.84;1661438;82;21296;-76
2021/01/31 10:32:42;;;;;;;7.75;4.10;;;;;;;25.52;32.19;157856.33;1687866;83;21237;-75
2021/01/31 10:35:39;;;;;;;6.45;3.35;;;;;;;25.62;30.39;157884.17;1690174;83;21257;-77
2021/01/31 10:38:32;;;;;;;8.28;2.98;;;;;;;26.28;31.12;158060.88;1689674;82;22109;-72
2021/01/31 10:41:06;;;;;;;6.70;3.62;;;;;;;26.96;32.06;158243.00;1687663;83;21771;-71
2021/01/31 10:43:43;;;;;;;5.58;2.87;;;;;;;27.19;33.01;158302.84;1693529;83;21319;-70
2021/01/31 10:46:16;;;;;;;4.62;2.80;;;;;;;26.79;32.46;158197.78;1687749;82;21332;-77
2021/01/31 10:48:48;;;;;;;5.53;2.50;;;;;;;26.52;31.81;158123.34;1690885;82;21347;-72
2021/01/31 10:51:21;;;;;;;4.78;2.47;;;;;;;26.50;31.15;158119.38;1685730;83;21198;-76
2021/01/31 10:53:54;;;;;;;5.47;2.85;;;;;;;25.94;29.55;157970.56;1687858;83;21209;-77
2021/01/31 10:56:29;;;;;;;6.05;2.85;;;;;;;25.28;30.51;157793.91;1688016;82;21407;-75
2021/01/31 10:59:03;;;;;;;6.83;2.70;;;;;;;24.67;30.87;157631.94;1687422;82;21415;-72
2021/01/31 11:01:36;;;;;;;6.55;3.70;;;;;;;23.72;29.00;157378.53;1690353;82;21293;-69
2021/01/31 11:04:09;;;;;;;6.37;3.15;;;;;;;24.05;30.15;157466.08;1698187;83;21280;-72
2021/01/31 11:06:45;;;;;;;4.17;2.10;;;;;;;23.91;30.19;157427.64;1694383;82;21238;-70
2021/01/31 11:09:17;;;;;;;5.33;2.50;;;;;;;23.68;30.40;157366.59;1696755;82;21210;-74
2021/01/31 11:11:50;;;;;;;6.08;2.67;;;;;;;23.40;31.32;157291.05;1690300;82;21383;-71
2021/01/31 11:14:26;;;;;;;3.92;2.40;;;;;;;23.43;31.31;157300.31;1690623;82;21222;-72
2021/01/31 11:17:00;;;;;;;5.37;2.80;;;;;;;23.83;31.11;157407.75;1691467;82;21195;-73
2021/01/31 11:19:34;;;;;;;5.83;2.90;;;;;;;24.23;30.19;157513.86;1676134;83;21236;-72
2021/01/31 11:22:07;;;;;;;6.45;2.77;;;;;;;24.32;29.69;157537.72;1696713;82;21303;-70
2021/01/31 11:24:40;;;;;;;5.55;2.83;;;;;;;24.31;32.30;157535.06;1688984;82;21234;-69
2021/01/31 11:27:13;;;;;;;6.70;3.42;;;;;;;24.42;31.88;157564.23;1675643;84;21242;-76
2021/01/31 11:29:46;;;;;;;6.95;3.42;;;;;;;24.16;32.27;157495.25;1701770;82;21392;-66
2021/01/31 11:32:19;;;;;;;5.70;3.27;;;;;;;23.97;31.95;157443.53;1673435;84;21205;-68
2021/01/31 11:34:51;;;;;;;6.70;2.90;;;;;;;24.78;31.70;157659.81;1688051;83;21775;-74
2021/01/31 11:37:25;;;;;;;5.20;2.92;;;;;;;25.08;29.24;157740.78;1695819;83;21346;-73
2021/01/31 11:39:57;;;;;;;3.47;2.40;;;;;;;25.00;32.26;157719.50;1689293;82;21289;-72
2021/01/31 11:42:30;;;;;;;8.38;3.12;;;;;;;25.52;32.99;157857.63;1691435;83;21771;-72
2021/01/31 11:45:05;;;;;;;6.72;3.05;;;;;;;24.34;28.98;157541.69;1687864;82;21240;-73
2021/01/31 11:47:38;;;;;;;6.33;2.95;;;;;;;24.69;31.88;157635.94;1661295;84;21387;-72
2021/01/31 11:50:12;;;;;;;7.42;2.98;;;;;;;24.45;31.64;157570.91;1686230;83;21260;-71
2021/01/31 11:52:45;;;;;;;5.62;2.75;;;;;;;24.28;30.93;157525.78;1693570;83;21233;-70
2021/01/31 11:55:18;;;;;;;6.28;2.90;;;;;;;24.34;31.95;157543.03;1693599;82;21181;-74
2021/01/31 11:57:51;;;;;;;5.97;2.42;;;;;;;24.24;32.63;157515.16;1689523;82;21234;-71
2021/01/31 12:00:25;;;;;;;10.13;4.87;;;;;;;24.95;31.92;157706.27;1688840;82;21231;-72
2021/01/31 12:02:59;;;;;;;18.55;7.10;;;;;;;24.60;31.27;157610.72;1690635;83;21287;-75
2021/01/31 12:05:31;;;;;;;11.08;5.05;;;;;;;24.52;32.11;157590.81;1688426;82;21421;-73
2021/01/31 12:08:05;;;;;;;9.80;4.15;;;;;;;24.20;30.89;157505.89;1691926;82;21701;-71
2021/01/31 12:10:37;;;;;;;8.75;4.50;;;;;;;24.43;33.25;157566.91;1696220;82;21178;-73
2021/01/31 12:13:10;;;;;;;9.60;4.90;;;;;;;24.24;30.00;157516.52;1750954;80;21913;-70
2021/01/31 12:15:59;;;;;;;8.83;4.12;;;;;;;24.48;32.13;157580.19;1736176;80;21359;-70
2021/01/31 12:18:32;;;;;;;17.32;5.80;;;;;;;24.72;34.21;157643.88;1746978;80;21358;-76
2021/01/31 12:21:09;;;;;;;12.30;6.97;;;;;;;24.62;32.33;157616.03;1757089;80;21874;-75